Time,TemperatureF,DewpointF,PressureIn,WindDirection,WindDirectionDegrees,WindSpeedMPH,WindSpeedGustMPH,Humidity,HourlyPrecipIn,Conditions,Clouds,dailyrainin,SoftwareType,DateUTC
2013-05-04 00:00:00,57.4,44.1,30.18,SE,135,4.9,4.9,61,0.00,,OVC075,0.00,VWS V14.01,2013-05-04 04:00:00,
2013-05-04 00:01:00,57.4,44.1,30.18,SE,135,2.7,4.9,61,0.00,,OVC075,0.00,VWS V14.01,2013-05-04 04:01:00,
2013-05-04 00:02:00,57.4,44.1,30.18,ESE,112,4.0,4.0,61,0.00,,OVC075,0.00,VWS V14.01,2013-05-04 04:02:00,
2013-05-04 00:07:00,57.4,42.7,30.21,SE,135,0.0,2.7,58,0.00,,OVC075,0.00,VWS V14.01,2013-05-04 04:07:00,
2013-05-04 00:12:00,57.2,42.6,30.21,ESE,112,2.7,2.7,58,0.00,,OVC075,0.00,VWS V14.01,2013-05-04 04:12:00,
2013-05-04 00:17:00,57.2,42.6,30.21,NNE,22,3.1,3.6,58,0.00,,OVC075,0.00,VWS V14.01,2013-05-04 04:17:00,
2013-05-04 00:22:00,56.8,42.2,30.21,ESE,112,3.6,3.6,58,0.00,,OVC046,0.00,VWS V14.01,2013-05-04 04:22:00,
2013-05-04 00:27:00,56.8,41.8,30.21,ENE,68,2.7,2.7,57,0.00,,OVC046,0.00,VWS V14.01,2013-05-04 04:27:00,
2013-05-04 00:32:00,56.7,41.6,30.21,SE,135,2.7,2.7,57,0.00,,OVC046,0.00,VWS V14.01,2013-05-04 04:32:00,
2013-05-04 00:37:00,56.3,41.3,30.18,NE,45,3.6,5.8,57,0.00,,OVC046,0.00,VWS V14.01,2013-05-04 04:37:00,
2013-05-04 00:42:00,56.3,40.8,30.18,SSE,158,6.3,6.3,56,0.00,,OVC080,0.00,VWS V14.01,2013-05-04 04:42:00,
2013-05-04 00:47:00,56.3,40.4,30.18,SSE,158,3.1,4.0,55,0.00,,OVC080,0.00,VWS V14.01,2013-05-04 04:47:00,
2013-05-04 00:52:00,56.1,39.7,30.21,East,90,4.0,4.0,54,0.00,,OVC080,0.00,VWS V14.01,2013-05-04 04:52:00,
2013-05-04 00:57:00,55.9,39.5,30.21,ESE,112,2.7,3.6,54,0.00,,OVC080,0.00,VWS V14.01,2013-05-04 04:57:00,
2013-05-04 01:02:00,55.8,38.9,30.21,NNW,338,3.1,5.4,53,0.00,,OVC080,0.00,VWS V14.01,2013-05-04 05:02:00,
2013-05-04 01:07:00,55.6,38.7,30.18,SSE,158,2.7,5.4,53,0.00,,OVC080,0.00,VWS V14.01,2013-05-04 05:07:00,
2013-05-04 01:12:00,55.2,38.9,30.18,SE,135,2.2,3.6,54,0.00,,OVC080,0.00,VWS V14.01,2013-05-04 05:12:00,
2013-05-04 01:17:00,54.9,39.0,30.18,ESE,112,2.2,4.0,55,0.00,,OVC080,0.00,VWS V14.01,2013-05-04 05:17:00,
2013-05-04 01:22:00,54.7,38.8,30.18,ESE,112,4.0,4.0,55,0.00,,OVC080,0.00,VWS V14.01,2013-05-04 05:22:00,
2013-05-04 01:27:00,54.5,38.7,30.18,ESE,112,0.0,0.0,55,0.00,,OVC080,0.00,VWS V14.01,2013-05-04 05:27:00,
2013-05-04 01:32:00,54.3,38.5,30.18,SSE,158,3.1,4.0,55,0.00,,OVC080,0.00,VWS V14.01,2013-05-04 05:32:00,
2013-05-04 01:37:00,54.0,38.6,30.21,SSE,158,0.0,0.0,56,0.00,,OVC080,0.00,VWS V14.01,2013-05-04 05:37:00,
2013-05-04 01:42:00,54.0,39.1,30.21,ENE,68,3.6,3.6,57,0.00,,OVC090,0.00,VWS V14.01,2013-05-04 05:42:00,
2013-05-04 01:47:00,53.6,39.2,30.21,East,90,0.0,4.0,58,0.00,,OVC090,0.00,VWS V14.01,2013-05-04 05:47:00,
2013-05-04 01:52:00,53.6,38.8,30.21,NE,45,3.1,3.1,57,0.00,,OVC090,0.00,VWS V14.01,2013-05-04 05:52:00,
2013-05-04 01:57:00,53.4,39.0,30.18,SE,135,3.6,3.6,58,0.00,,OVC090,0.00,VWS V14.01,2013-05-04 05:57:00,
2013-05-04 02:02:00,53.2,38.9,30.18,ENE,68,4.0,4.0,58,0.00,,OVC090,0.00,VWS V14.01,2013-05-04 06:02:00,
2013-05-04 02:07:00,53.1,38.7,30.18,ESE,112,4.5,7.6,58,0.00,,OVC090,0.00,VWS V14.01,2013-05-04 06:07:00,
2013-05-04 02:12:00,53.1,39.1,30.18,SSE,158,4.0,4.0,59,0.00,,OVC090,0.00,VWS V14.01,2013-05-04 06:12:00,
2013-05-04 02:17:00,52.7,39.2,30.18,SSE,158,2.7,2.7,60,0.00,,OVC090,0.00,VWS V14.01,2013-05-04 06:17:00,
2013-05-04 02:22:00,52.5,39.5,30.18,SE,135,2.7,3.1,61,0.00,,OVC090,0.00,VWS V14.01,2013-05-04 06:22:00,
2013-05-04 02:27:00,52.2,39.5,30.18,SE,135,3.1,3.6,62,0.00,,OVC090,0.00,VWS V14.01,2013-05-04 06:27:00,
2013-05-04 02:32:00,52.0,39.4,30.18,ENE,68,2.2,3.1,62,0.00,,OVC090,0.00,VWS V14.01,2013-05-04 06:32:00,
2013-05-04 02:37:00,52.0,39.8,30.18,NE,45,2.7,2.7,63,0.00,,OVC090,0.00,VWS V14.01,2013-05-04 06:37:00,
2013-05-04 02:42:00,51.8,40.0,30.18,NE,45,3.6,4.9,64,0.00,,OVC090,0.00,VWS V14.01,2013-05-04 06:42:00,
2013-05-04 02:47:00,51.8,40.4,30.18,ESE,112,2.7,2.7,65,0.00,,OVC090,0.00,VWS V14.01,2013-05-04 06:47:00,
2013-05-04 02:52:00,51.6,40.7,30.18,SSE,158,3.6,3.6,66,0.00,,OVC090,0.00,VWS V14.01,2013-05-04 06:52:00,
2013-05-04 02:57:00,51.6,40.2,30.18,NNE,22,3.6,3.6,65,0.00,,OVC090,0.00,VWS V14.01,2013-05-04 06:57:00,
2013-05-04 03:02:00,51.6,39.5,30.18,ENE,68,3.6,3.6,63,0.00,,BKN090,0.00,VWS V14.01,2013-05-04 07:02:00,
2013-05-04 03:07:00,51.3,38.7,30.18,ENE,68,2.2,5.4,62,0.00,,BKN090,0.00,VWS V14.01,2013-05-04 07:07:00,
2013-05-04 03:12:00,51.1,38.5,30.18,North,0,0.0,2.7,62,0.00,,BKN090,0.00,VWS V14.01,2013-05-04 07:12:00,
2013-05-04 03:17:00,50.7,38.2,30.18,NNE,22,2.7,4.0,62,0.00,,BKN090,0.00,VWS V14.01,2013-05-04 07:17:00,
2013-05-04 03:22:00,50.5,37.6,30.18,NE,45,3.6,3.6,61,0.00,,,0.00,VWS V14.01,2013-05-04 07:22:00,
2013-05-04 03:27:00,50.4,37.4,30.18,East,90,3.1,3.1,61,0.00,,,0.00,VWS V14.01,2013-05-04 07:27:00,
2013-05-04 03:33:00,50.2,37.3,30.18,ESE,112,3.1,4.0,61,0.00,,,0.00,VWS V14.01,2013-05-04 07:33:00,
2013-05-04 03:38:00,50.0,37.5,30.18,SSE,158,0.0,2.2,62,0.00,,,0.00,VWS V14.01,2013-05-04 07:38:00,
2013-05-04 03:43:00,49.8,37.8,30.18,NNE,22,0.0,2.2,63,0.00,,SCT033,0.00,VWS V14.01,2013-05-04 07:43:00,
2013-05-04 03:48:00,49.8,38.2,30.18,East,90,2.7,2.7,64,0.00,,SCT033,0.00,VWS V14.01,2013-05-04 07:48:00,
2013-05-04 03:53:00,49.6,38.4,30.18,NNE,22,3.1,3.1,65,0.00,,SCT033,0.00,VWS V14.01,2013-05-04 07:53:00,
2013-05-04 03:58:00,49.6,38.4,30.18,NNE,22,0.0,2.7,65,0.00,,SCT033,0.00,VWS V14.01,2013-05-04 07:58:00,
2013-05-04 04:03:00,49.5,38.2,30.18,NNE,22,0.0,0.0,65,0.00,,BKN032,0.00,VWS V14.01,2013-05-04 08:03:00,
2013-05-04 04:08:00,49.3,38.0,30.18,NNE,22,2.2,2.2,65,0.00,,BKN032,0.00,VWS V14.01,2013-05-04 08:08:00,
2013-05-04 04:13:00,49.3,38.0,30.18,NNE,22,2.7,3.6,65,0.00,,BKN032,0.00,VWS V14.01,2013-05-04 08:13:00,
2013-05-04 04:18:00,49.1,37.9,30.18,North,0,0.0,2.2,65,0.00,,BKN032,0.00,VWS V14.01,2013-05-04 08:18:00,
2013-05-04 04:23:00,49.1,37.9,30.18,ENE,68,2.2,3.1,65,0.00,,BKN032,0.00,VWS V14.01,2013-05-04 08:23:00,
2013-05-04 04:28:00,49.1,37.9,30.18,NNE,22,2.7,2.7,65,0.00,,BKN032,0.00,VWS V14.01,2013-05-04 08:28:00,
2013-05-04 04:33:00,49.1,38.2,30.18,NNE,22,2.2,2.7,66,0.00,,BKN032,0.00,VWS V14.01,2013-05-04 08:33:00,
2013-05-04 04:38:00,48.9,38.1,30.18,NNE,22,4.0,4.0,66,0.00,,BKN032,0.00,VWS V14.01,2013-05-04 08:38:00,
2013-05-04 04:43:00,48.9,37.7,30.18,East,90,3.1,3.1,65,0.00,,BKN040,0.00,VWS V14.01,2013-05-04 08:43:00,
2013-05-04 04:48:00,48.7,37.5,30.18,NNE,22,3.6,3.6,65,0.00,,BKN040,0.00,VWS V14.01,2013-05-04 08:48:00,
2013-05-04 04:53:00,48.7,37.5,30.18,NE,45,3.1,3.1,65,0.00,,BKN040,0.00,VWS V14.01,2013-05-04 08:53:00,
2013-05-04 04:58:00,48.7,37.9,30.18,NNE,22,2.7,4.9,66,0.00,,BKN040,0.00,VWS V14.01,2013-05-04 08:58:00,
2013-05-04 05:03:00,48.7,37.9,30.18,NNE,22,2.7,2.7,66,0.00,,BKN048,0.00,VWS V14.01,2013-05-04 09:03:00,
2013-05-04 05:08:00,48.7,37.9,30.18,North,0,2.7,2.7,66,0.00,,BKN048,0.00,VWS V14.01,2013-05-04 09:08:00,
2013-05-04 05:13:00,48.7,37.9,30.18,North,0,3.1,3.1,66,0.00,,BKN048,0.00,VWS V14.01,2013-05-04 09:13:00,
2013-05-04 05:18:00,48.7,37.9,30.18,North,0,3.6,3.6,66,0.00,,BKN048,0.00,VWS V14.01,2013-05-04 09:18:00,
2013-05-04 05:23:00,48.7,37.9,30.18,North,0,2.7,2.7,66,0.00,,OVC038,0.00,VWS V14.01,2013-05-04 09:23:00,
2013-05-04 05:28:00,48.7,38.3,30.21,North,0,0.0,0.0,67,0.00,,OVC038,0.00,VWS V14.01,2013-05-04 09:28:00,
2013-05-04 05:33:00,48.7,38.3,30.21,NNE,22,2.7,3.6,67,0.00,,OVC038,0.00,VWS V14.01,2013-05-04 09:33:00,
2013-05-04 05:38:00,48.7,38.3,30.18,NNE,22,2.2,2.2,67,0.00,,OVC038,0.00,VWS V14.01,2013-05-04 09:38:00,
2013-05-04 05:43:00,48.7,38.3,30.18,NNE,22,2.2,2.2,67,0.00,,OVC032,0.00,VWS V14.01,2013-05-04 09:43:00,
2013-05-04 05:48:00,48.7,38.3,30.18,NNE,22,0.0,0.0,67,0.00,,OVC032,0.00,VWS V14.01,2013-05-04 09:48:00,
2013-05-04 05:53:00,48.9,38.8,30.18,NNE,22,2.7,2.7,68,0.00,,OVC032,0.00,VWS V14.01,2013-05-04 09:53:00,
2013-05-04 05:58:00,48.9,38.8,30.18,NNE,22,0.0,2.2,68,0.00,,OVC032,0.00,VWS V14.01,2013-05-04 09:58:00,
2013-05-04 06:03:00,48.9,38.8,30.18,NNE,22,0.0,0.0,68,0.00,,OVC030,0.00,VWS V14.01,2013-05-04 10:03:00,
2013-05-04 06:08:00,48.9,38.8,30.21,NNE,22,0.0,0.0,68,0.00,,OVC030,0.00,VWS V14.01,2013-05-04 10:08:00,
2013-05-04 06:13:00,48.9,38.8,30.21,NNE,22,0.0,0.0,68,0.00,,OVC030,0.00,VWS V14.01,2013-05-04 10:13:00,
2013-05-04 06:18:00,48.9,38.8,30.21,NNE,22,0.0,0.0,68,0.00,,OVC030,0.00,VWS V14.01,2013-05-04 10:18:00,
2013-05-04 06:23:00,48.9,38.8,30.21,NNE,22,0.0,0.0,68,0.00,,OVC026,0.00,VWS V14.01,2013-05-04 10:23:00,
2013-05-04 06:28:00,48.9,39.2,30.21,NNE,22,0.0,0.0,69,0.00,,OVC026,0.00,VWS V14.01,2013-05-04 10:28:00,
2013-05-04 06:33:00,48.9,39.2,30.21,NNE,22,0.0,0.0,69,0.00,,OVC026,0.00,VWS V14.01,2013-05-04 10:33:00,
2013-05-04 06:38:00,48.9,39.2,30.21,NNE,22,2.2,2.2,69,0.00,,OVC026,0.00,VWS V14.01,2013-05-04 10:38:00,
2013-05-04 06:43:00,48.9,39.2,30.21,NNE,22,2.7,2.7,69,0.00,,OVC024,0.00,VWS V14.01,2013-05-04 10:43:00,
2013-05-04 06:48:00,48.9,39.6,30.21,NNE,22,0.0,0.0,70,0.00,,OVC024,0.00,VWS V14.01,2013-05-04 10:48:00,
2013-05-04 06:53:00,48.9,39.6,30.18,NNE,22,0.0,2.2,70,0.00,,OVC024,0.00,VWS V14.01,2013-05-04 10:53:00,
2013-05-04 06:58:00,48.9,39.6,30.18,NNE,22,0.0,0.0,70,0.00,,OVC024,0.00,VWS V14.01,2013-05-04 10:58:00,
2013-05-04 07:03:00,48.9,39.6,30.18,NNE,22,2.7,3.6,70,0.00,,OVC022,0.00,VWS V14.01,2013-05-04 11:03:00,
2013-05-04 07:08:00,48.9,39.6,30.18,NNE,22,2.7,2.7,70,0.00,,OVC022,0.00,VWS V14.01,2013-05-04 11:08:00,
2013-05-04 07:13:00,48.9,39.9,30.18,NNE,22,0.0,0.0,71,0.00,,OVC022,0.00,VWS V14.01,2013-05-04 11:13:00,
2013-05-04 07:18:00,48.9,39.9,30.18,NNE,22,2.2,2.7,71,0.00,,OVC022,0.00,VWS V14.01,2013-05-04 11:18:00,
2013-05-04 07:23:00,48.9,39.9,30.18,NNE,22,0.0,0.0,71,0.00,,OVC026,0.00,VWS V14.01,2013-05-04 11:23:00,
2013-05-04 07:28:00,48.9,39.9,30.18,NNE,22,2.2,2.2,71,0.00,,OVC026,0.00,VWS V14.01,2013-05-04 11:28:00,
2013-05-04 07:33:00,48.9,39.9,30.18,NNE,22,0.0,0.0,71,0.00,,OVC026,0.00,VWS V14.01,2013-05-04 11:33:00,
2013-05-04 07:38:00,48.9,39.9,30.21,SE,135,0.0,0.0,71,0.00,,OVC026,0.00,VWS V14.01,2013-05-04 11:38:00,
2013-05-04 07:43:00,49.1,40.5,30.21,SE,135,0.0,0.0,72,0.00,,OVC020,0.00,VWS V14.01,2013-05-04 11:43:00,
2013-05-04 07:48:00,49.1,40.5,30.21,SE,135,0.0,0.0,72,0.00,,OVC020,0.00,VWS V14.01,2013-05-04 11:48:00,
2013-05-04 07:53:00,49.1,40.5,30.21,SE,135,2.2,2.2,72,0.00,,OVC020,0.00,VWS V14.01,2013-05-04 11:53:00,
2013-05-04 07:58:00,49.1,40.5,30.18,SE,135,0.0,2.2,72,0.00,,OVC020,0.00,VWS V14.01,2013-05-04 11:58:00,
2013-05-04 08:03:00,49.1,40.5,30.18,SSE,158,2.2,2.7,72,0.00,,OVC020,0.00,VWS V14.01,2013-05-04 12:03:00,
2013-05-04 08:08:00,49.1,40.5,30.18,ENE,68,0.0,0.0,72,0.00,,OVC020,0.00,VWS V14.01,2013-05-04 12:08:00,
2013-05-04 08:13:00,49.1,40.5,30.18,East,90,0.0,2.7,72,0.00,,OVC020,0.00,VWS V14.01,2013-05-04 12:13:00,
2013-05-04 08:19:00,49.3,40.7,30.18,East,90,0.0,2.2,72,0.00,,OVC020,0.00,VWS V14.01,2013-05-04 12:19:00,
2013-05-04 08:24:00,49.3,40.7,30.18,North,0,3.6,3.6,72,0.00,,OVC020,0.00,VWS V14.01,2013-05-04 12:24:00,
2013-05-04 08:29:00,49.3,40.3,30.18,NNE,22,0.0,3.6,71,0.00,,OVC020,0.00,VWS V14.01,2013-05-04 12:29:00,
2013-05-04 08:34:00,49.3,40.3,30.18,NNE,22,3.1,3.1,71,0.00,,OVC020,0.00,VWS V14.01,2013-05-04 12:34:00,
2013-05-04 08:39:00,49.3,40.3,30.18,SSE,158,2.7,3.6,71,0.00,,OVC020,0.00,VWS V14.01,2013-05-04 12:39:00,
2013-05-04 08:44:00,49.3,40.3,30.18,ESE,112,3.1,3.1,71,0.00,,OVC020,0.00,VWS V14.01,2013-05-04 12:44:00,
2013-05-04 08:49:00,49.3,40.3,30.18,ESE,112,4.9,4.9,71,0.00,,OVC020,0.00,VWS V14.01,2013-05-04 12:49:00,
2013-05-04 08:54:00,49.3,40.7,30.18,ESE,112,2.7,2.7,72,0.00,,OVC020,0.00,VWS V14.01,2013-05-04 12:54:00,
2013-05-04 08:59:00,49.5,40.8,30.18,NNE,22,2.2,2.2,72,0.00,,OVC020,0.00,VWS V14.01,2013-05-04 12:59:00,
2013-05-04 09:04:00,49.3,40.3,30.18,NE,45,2.2,2.2,71,0.00,,OVC020,0.00,VWS V14.01,2013-05-04 13:04:00,
2013-05-04 09:09:00,49.3,40.3,30.18,NE,45,4.0,4.0,71,0.00,,OVC020,0.00,VWS V14.01,2013-05-04 13:09:00,
2013-05-04 09:14:00,49.5,40.5,30.18,NNE,22,2.2,4.9,71,0.00,,OVC020,0.00,VWS V14.01,2013-05-04 13:14:00,
2013-05-04 09:19:00,49.5,40.8,30.18,NE,45,0.0,3.1,72,0.00,,OVC020,0.00,VWS V14.01,2013-05-04 13:19:00,
2013-05-04 09:24:00,49.6,40.6,30.18,NNE,22,4.0,4.0,71,0.00,,OVC020,0.00,VWS V14.01,2013-05-04 13:24:00,
2013-05-04 09:29:00,49.8,41.2,30.18,SE,135,2.7,2.7,72,0.00,,OVC020,0.00,VWS V14.01,2013-05-04 13:29:00,
2013-05-04 09:34:00,49.8,41.2,30.18,ESE,112,2.7,5.4,72,0.00,,OVC020,0.00,VWS V14.01,2013-05-04 13:34:00,
2013-05-04 09:39:00,50.0,41.0,30.18,NNE,22,0.0,3.1,71,0.00,,OVC020,0.00,VWS V14.01,2013-05-04 13:39:00,
2013-05-04 09:44:00,50.2,41.2,30.18,North,0,2.7,2.7,71,0.00,,OVC020,0.00,VWS V14.01,2013-05-04 13:44:00,
2013-05-04 09:49:00,50.0,40.6,30.18,NNE,22,0.0,2.2,70,0.00,,OVC020,0.00,VWS V14.01,2013-05-04 13:49:00,
2013-05-04 09:54:00,50.0,40.6,30.18,NNE,22,2.2,2.7,70,0.00,,OVC020,0.00,VWS V14.01,2013-05-04 13:54:00,
2013-05-04 09:59:00,50.2,41.2,30.18,ESE,112,2.2,2.2,71,0.00,,OVC020,0.00,VWS V14.01,2013-05-04 13:59:00,
2013-05-04 10:04:00,50.4,41.3,30.18,ENE,68,2.7,2.7,71,0.00,,OVC020,0.00,VWS V14.01,2013-05-04 14:04:00,
2013-05-04 10:09:00,50.4,41.0,30.18,NNE,22,2.2,2.2,70,0.00,,OVC020,0.00,VWS V14.01,2013-05-04 14:09:00,
2013-05-04 10:14:00,50.4,41.0,30.18,NNE,22,4.5,4.5,70,0.00,,OVC020,0.00,VWS V14.01,2013-05-04 14:14:00,
2013-05-04 10:19:00,50.4,41.0,30.18,ENE,68,2.2,3.1,70,0.00,,OVC020,0.00,VWS V14.01,2013-05-04 14:19:00,
2013-05-04 10:24:00,50.5,41.1,30.18,ESE,112,0.0,2.2,70,0.00,,OVC020,0.00,VWS V14.01,2013-05-04 14:24:00,
2013-05-04 10:29:00,50.5,41.1,30.18,SSE,158,4.0,4.0,70,0.00,,OVC020,0.00,VWS V14.01,2013-05-04 14:29:00,
2013-05-04 10:34:00,50.7,41.7,30.18,NNE,22,4.0,4.0,71,0.00,,OVC020,0.00,VWS V14.01,2013-05-04 14:34:00,
2013-05-04 10:39:00,50.5,41.1,30.18,SE,135,4.9,4.9,70,0.00,,OVC020,0.00,VWS V14.01,2013-05-04 14:39:00,
2013-05-04 10:44:00,50.5,41.1,30.18,NE,45,3.1,3.1,70,0.00,,OVC018,0.00,VWS V14.01,2013-05-04 14:44:00,
2013-05-04 10:49:00,50.7,41.7,30.18,ENE,68,2.2,3.6,71,0.00,,OVC018,0.00,VWS V14.01,2013-05-04 14:49:00,
2013-05-04 10:54:00,50.7,41.7,30.18,ENE,68,2.7,2.7,71,0.00,,OVC018,0.00,VWS V14.01,2013-05-04 14:54:00,
2013-05-04 10:59:00,50.7,41.7,30.18,ENE,68,2.7,3.1,71,0.00,,OVC018,0.00,VWS V14.01,2013-05-04 14:59:00,
2013-05-04 11:04:00,50.7,41.7,30.18,ENE,68,3.1,3.1,71,0.00,,OVC018,0.00,VWS V14.01,2013-05-04 15:04:00,
2013-05-04 11:09:00,50.7,41.7,30.18,NNE,22,3.1,3.1,71,0.00,,OVC018,0.00,VWS V14.01,2013-05-04 15:09:00,
2013-05-04 11:14:00,50.5,41.5,30.18,NNW,338,2.2,2.7,71,0.00,,OVC018,0.00,VWS V14.01,2013-05-04 15:14:00,
2013-05-04 11:19:00,50.7,41.7,30.18,SSE,158,2.7,3.1,71,0.00,,OVC018,0.00,VWS V14.01,2013-05-04 15:19:00,
2013-05-04 11:24:00,50.9,41.8,30.18,NNE,22,2.7,3.6,71,0.00,,OVC018,0.00,VWS V14.01,2013-05-04 15:24:00,
2013-05-04 11:29:00,50.9,41.8,30.18,East,90,2.7,2.7,71,0.00,,OVC018,0.00,VWS V14.01,2013-05-04 15:29:00,
2013-05-04 11:34:00,50.9,42.2,30.18,East,90,3.6,3.6,72,0.00,,OVC018,0.00,VWS V14.01,2013-05-04 15:34:00,
2013-05-04 11:39:00,50.7,42.4,30.18,NE,45,2.7,2.7,73,0.00,,OVC018,0.00,VWS V14.01,2013-05-04 15:39:00,
2013-05-04 11:44:00,50.7,42.8,30.18,SSW,202,0.0,0.0,74,0.00,,,0.00,VWS V14.01,2013-05-04 15:44:00,
2013-05-04 11:49:00,50.7,43.4,30.18,NNW,338,4.0,4.0,76,0.00,,,0.00,VWS V14.01,2013-05-04 15:49:00,
2013-05-04 11:54:00,50.4,43.8,30.18,NNE,22,3.6,3.6,78,0.00,,,0.00,VWS V14.01,2013-05-04 15:54:00,
2013-05-04 11:59:00,50.2,44.3,30.18,NNE,22,2.7,2.7,80,0.00,,,0.00,VWS V14.01,2013-05-04 15:59:00,
2013-05-04 12:04:00,50.5,45.6,30.18,NNE,22,2.2,3.1,83,0.00,,RA,0.00,VWS V14.01,2013-05-04 16:04:00,
2013-05-04 12:09:00,51.1,46.4,30.18,NNE,22,2.7,2.7,84,0.00,,RA,0.00,VWS V14.01,2013-05-04 16:09:00,
2013-05-04 12:14:00,51.6,47.0,30.18,NNE,22,4.0,4.0,84,0.00,,RA,0.00,VWS V14.01,2013-05-04 16:14:00,
2013-05-04 12:19:00,52.0,47.0,30.18,SSE,158,0.0,2.2,83,0.00,,RA,0.00,VWS V14.01,2013-05-04 16:19:00,
2013-05-04 12:24:00,52.3,47.0,30.18,East,90,2.7,2.7,82,0.00,,-RA,0.00,VWS V14.01,2013-05-04 16:24:00,
2013-05-04 12:29:00,52.2,46.2,30.18,NNE,22,2.7,2.7,80,0.00,,-RA,0.00,VWS V14.01,2013-05-04 16:29:00,
2013-05-04 12:34:00,52.7,46.4,30.18,SSW,202,2.2,2.7,79,0.00,,-RA,0.00,VWS V14.01,2013-05-04 16:34:00,
2013-05-04 12:39:00,52.9,45.5,30.15,ENE,68,3.1,3.1,76,0.00,,-RA,0.00,VWS V14.01,2013-05-04 16:39:00,
2013-05-04 12:44:00,53.2,45.5,30.15,ENE,68,2.7,2.7,75,0.00,,OVC027,0.00,VWS V14.01,2013-05-04 16:44:00,
2013-05-04 12:49:00,53.4,45.0,30.15,NNW,338,0.0,0.0,73,0.00,,OVC027,0.00,VWS V14.01,2013-05-04 16:49:00,
2013-05-04 12:54:00,54.1,45.3,30.15,NNW,338,2.2,2.2,72,0.00,,OVC027,0.00,VWS V14.01,2013-05-04 16:54:00,
2013-05-04 12:59:00,54.3,45.1,30.15,NNE,22,5.4,5.4,71,0.00,,OVC027,0.00,VWS V14.01,2013-05-04 16:59:00,
2013-05-04 13:04:00,54.5,44.5,30.15,NNE,22,0.0,2.7,69,0.00,,OVC014,0.00,VWS V14.01,2013-05-04 17:04:00,
2013-05-04 13:09:00,55.2,44.5,30.15,West,270,2.7,4.5,67,0.00,,OVC014,0.00,VWS V14.01,2013-05-04 17:09:00,
2013-05-04 13:14:00,55.9,44.4,30.15,ENE,68,2.7,4.0,65,0.00,,OVC014,0.00,VWS V14.01,2013-05-04 17:14:00,
2013-05-04 13:19:00,56.7,43.4,30.15,SE,135,5.8,5.8,61,0.00,,OVC014,0.00,VWS V14.01,2013-05-04 17:19:00,
2013-05-04 13:24:00,57.0,42.0,30.15,ENE,68,0.0,4.9,57,0.00,,OVC015,0.00,VWS V14.01,2013-05-04 17:24:00,
2013-05-04 13:29:00,57.7,43.1,30.15,ENE,68,2.2,4.0,58,0.00,,OVC015,0.00,VWS V14.01,2013-05-04 17:29:00,
2013-05-04 13:34:00,58.1,42.5,30.15,SSE,158,2.7,2.7,56,0.00,,OVC015,0.00,VWS V14.01,2013-05-04 17:34:00,
2013-05-04 13:39:00,58.1,41.6,30.15,ESE,112,3.6,5.8,54,0.00,,OVC015,0.00,VWS V14.01,2013-05-04 17:39:00,
2013-05-04 13:44:00,58.5,41.4,30.15,ESE,112,4.0,4.0,53,0.00,,OVC032,0.00,VWS V14.01,2013-05-04 17:44:00,
2013-05-04 13:49:00,58.5,40.4,30.15,North,0,2.7,3.6,51,0.00,,OVC032,0.00,VWS V14.01,2013-05-04 17:49:00,
2013-05-04 13:54:00,58.1,39.6,30.15,West,270,3.1,3.1,50,0.00,,OVC032,0.00,VWS V14.01,2013-05-04 17:54:00,
2013-05-04 14:00:00,58.1,40.6,30.15,North,0,3.1,5.4,52,0.00,,OVC032,0.00,VWS V14.01,2013-05-04 18:00:00,
2013-05-04 14:05:00,58.1,40.1,30.15,NE,45,2.7,4.0,51,0.00,,OVC033,0.00,VWS V14.01,2013-05-04 18:05:00,
2013-05-04 14:10:00,57.9,39.4,30.15,ENE,68,2.2,4.0,50,0.00,,OVC033,0.00,VWS V14.01,2013-05-04 18:10:00,
2013-05-04 14:15:00,57.6,39.6,30.15,NNE,22,3.1,4.0,51,0.00,,OVC033,0.00,VWS V14.01,2013-05-04 18:15:00,
2013-05-04 14:20:00,57.6,39.6,30.15,WSW,248,2.2,2.2,51,0.00,,OVC033,0.00,VWS V14.01,2013-05-04 18:20:00,
2013-05-04 14:25:00,57.6,39.6,30.12,ESE,112,2.7,4.9,51,0.00,,OVC027,0.00,VWS V14.01,2013-05-04 18:25:00,
2013-05-04 14:30:00,57.6,39.6,30.12,NNE,22,2.7,3.6,51,0.00,,OVC027,0.00,VWS V14.01,2013-05-04 18:30:00,
2013-05-04 14:35:00,57.6,39.6,30.12,ENE,68,3.1,5.4,51,0.00,,OVC027,0.00,VWS V14.01,2013-05-04 18:35:00,
2013-05-04 14:40:00,56.5,40.0,30.12,North,0,3.6,3.6,54,0.00,,OVC027,0.00,VWS V14.01,2013-05-04 18:40:00,
2013-05-04 14:45:00,56.5,40.0,30.12,NNE,22,2.7,2.7,54,0.00,,OVC027,0.00,VWS V14.01,2013-05-04 18:45:00,
2013-05-04 14:50:00,56.5,40.0,30.12,NE,45,0.0,0.0,54,0.00,,OVC027,0.00,VWS V14.01,2013-05-04 18:50:00,
2013-05-04 14:55:00,56.5,40.0,30.12,NNE,22,0.0,2.7,54,0.00,,OVC027,0.00,VWS V14.01,2013-05-04 18:55:00,
2013-05-04 15:00:00,59.2,40.0,30.12,North,0,2.2,2.2,49,0.00,,OVC027,0.00,VWS V14.01,2013-05-04 19:00:00,
2013-05-04 15:05:00,59.4,40.2,30.12,NNE,22,3.1,4.0,49,0.00,,OVC027,0.00,VWS V14.01,2013-05-04 19:05:00,
2013-05-04 15:10:00,59.4,39.7,30.12,NNE,22,2.7,3.6,48,0.00,,OVC027,0.00,VWS V14.01,2013-05-04 19:10:00,
2013-05-04 15:15:00,59.7,40.5,30.12,ESE,112,2.2,3.6,49,0.00,,OVC027,0.00,VWS V14.01,2013-05-04 19:15:00,
2013-05-04 15:20:00,59.7,40.0,30.12,NNE,22,0.0,3.1,48,0.00,,OVC027,0.00,VWS V14.01,2013-05-04 19:20:00,
2013-05-04 15:25:00,60.1,40.9,30.12,NNE,22,3.1,5.4,49,0.00,,OVC027,0.00,VWS V14.01,2013-05-04 19:25:00,
2013-05-04 15:30:00,60.1,39.8,30.12,SE,135,5.4,5.4,47,0.00,,OVC027,0.00,VWS V14.01,2013-05-04 19:30:00,
2013-05-04 15:35:00,60.6,40.8,30.12,SSE,158,11.4,11.4,48,0.00,,OVC027,0.00,VWS V14.01,2013-05-04 19:35:00,
2013-05-04 15:40:00,60.6,40.8,30.12,SSE,158,3.6,3.6,48,0.00,,OVC029,0.00,VWS V14.01,2013-05-04 19:40:00,
2013-05-04 15:46:00,60.6,40.3,30.12,ESE,112,2.7,2.7,47,0.00,,OVC029,0.00,VWS V14.01,2013-05-04 19:46:00,
2013-05-04 15:51:00,60.6,40.3,30.12,South,180,0.0,0.0,47,0.00,,OVC029,0.00,VWS V14.01,2013-05-04 19:51:00,
2013-05-04 15:56:00,61.0,39.5,30.09,NNE,22,3.1,3.1,45,0.00,,OVC029,0.00,VWS V14.01,2013-05-04 19:56:00,
2013-05-04 16:01:00,61.3,40.4,30.09,ENE,68,2.2,2.2,46,0.00,,BKN031,0.00,VWS V14.01,2013-05-04 20:01:00,
2013-05-04 16:06:00,61.0,38.9,30.09,ESE,112,2.7,3.1,44,0.00,,BKN031,0.00,VWS V14.01,2013-05-04 20:06:00,
2013-05-04 16:11:00,60.4,38.4,30.09,ESE,112,4.9,5.8,44,0.00,,BKN031,0.00,VWS V14.01,2013-05-04 20:11:00,
2013-05-04 16:16:00,61.3,39.3,30.09,North,0,3.6,4.5,44,0.00,,BKN031,0.00,VWS V14.01,2013-05-04 20:16:00,
2013-05-04 16:21:00,62.1,40.5,30.09,SE,135,4.0,5.8,45,0.00,,BKN031,0.00,VWS V14.01,2013-05-04 20:21:00,
2013-05-04 16:26:00,62.8,39.4,30.09,North,0,4.0,4.0,42,0.00,,BKN031,0.00,VWS V14.01,2013-05-04 20:26:00,
2013-05-04 16:31:00,62.6,37.3,30.09,NNE,22,2.7,3.6,39,0.00,,BKN031,0.00,VWS V14.01,2013-05-04 20:31:00,
2013-05-04 16:36:00,62.8,38.8,30.09,ESE,112,4.9,4.9,41,0.00,,BKN031,0.00,VWS V14.01,2013-05-04 20:36:00,
2013-05-04 16:41:00,61.7,37.8,30.09,SE,135,3.1,3.6,41,0.00,,BKN035,0.00,VWS V14.01,2013-05-04 20:41:00,
2013-05-04 16:46:00,61.7,37.8,30.09,NNE,22,3.6,4.5,41,0.00,,BKN035,0.00,VWS V14.01,2013-05-04 20:46:00,
2013-05-04 16:51:00,61.3,38.7,30.09,NNE,22,2.7,4.0,43,0.00,,BKN035,0.00,VWS V14.01,2013-05-04 20:51:00,
2013-05-04 16:57:00,61.0,38.3,30.09,ESE,112,2.7,3.6,43,0.00,,BKN035,0.00,VWS V14.01,2013-05-04 20:57:00,
2013-05-04 17:02:00,60.6,39.2,30.09,SE,135,2.7,2.7,45,0.00,,OVC070,0.00,VWS V14.01,2013-05-04 21:02:00,
2013-05-04 17:07:00,60.6,39.2,30.09,SSE,158,3.1,3.1,45,0.00,,OVC070,0.00,VWS V14.01,2013-05-04 21:07:00,
2013-05-04 17:12:00,60.6,39.2,30.09,SE,135,3.1,4.0,45,0.00,,OVC070,0.00,VWS V14.01,2013-05-04 21:12:00,
2013-05-04 17:17:00,60.6,39.2,30.09,East,90,2.7,5.8,45,0.00,,OVC070,0.00,VWS V14.01,2013-05-04 21:17:00,
2013-05-04 17:22:00,60.4,39.0,30.09,ESE,112,3.6,3.6,45,0.00,,OVC060,0.00,VWS V14.01,2013-05-04 21:22:00,
2013-05-04 17:27:00,60.1,38.7,30.09,ESE,112,6.3,6.3,45,0.00,,OVC060,0.00,VWS V14.01,2013-05-04 21:27:00,
2013-05-04 17:32:00,60.3,38.8,30.09,NW,315,2.7,2.7,45,0.00,,OVC060,0.00,VWS V14.01,2013-05-04 21:32:00,
2013-05-04 17:37:00,60.1,39.2,30.09,ESE,112,3.1,4.0,46,0.00,,OVC060,0.00,VWS V14.01,2013-05-04 21:37:00,
2013-05-04 17:42:00,60.1,39.2,30.09,ESE,112,4.0,4.0,46,0.00,,OVC035,0.00,VWS V14.01,2013-05-04 21:42:00,
2013-05-04 17:47:00,59.9,38.5,30.09,ESE,112,2.2,2.7,45,0.00,,OVC035,0.00,VWS V14.01,2013-05-04 21:47:00,
2013-05-04 17:52:00,59.9,39.1,30.09,SE,135,3.6,3.6,46,0.00,,OVC035,0.00,VWS V14.01,2013-05-04 21:52:00,
2013-05-04 17:57:00,59.7,38.9,30.09,ESE,112,2.7,2.7,46,0.00,,OVC035,0.00,VWS V14.01,2013-05-04 21:57:00,
2013-05-04 18:02:00,59.5,38.8,30.09,ESE,112,3.1,3.1,46,0.00,,OVC055,0.00,VWS V14.01,2013-05-04 22:02:00,
2013-05-04 18:07:00,59.5,39.3,30.09,SSE,158,2.2,2.7,47,0.00,,OVC055,0.00,VWS V14.01,2013-05-04 22:07:00,
2013-05-04 18:12:00,59.4,39.2,30.09,ENE,68,0.0,3.1,47,0.00,,OVC055,0.00,VWS V14.01,2013-05-04 22:12:00,
2013-05-04 18:17:00,59.2,39.5,30.09,ESE,112,2.7,4.0,48,0.00,,OVC055,0.00,VWS V14.01,2013-05-04 22:17:00,
2013-05-04 18:22:00,59.2,39.5,30.09,NNE,22,2.2,2.2,48,0.00,,OVC055,0.00,VWS V14.01,2013-05-04 22:22:00,
2013-05-04 18:27:00,59.2,39.5,30.09,ESE,112,2.7,3.6,48,0.00,,OVC055,0.00,VWS V14.01,2013-05-04 22:27:00,
2013-05-04 18:32:00,59.2,39.5,30.09,ENE,68,2.2,2.7,48,0.00,,OVC055,0.00,VWS V14.01,2013-05-04 22:32:00,
2013-05-04 18:37:00,59.2,40.0,30.09,SSE,158,4.9,4.9,49,0.00,,OVC055,0.00,VWS V14.01,2013-05-04 22:37:00,
2013-05-04 18:42:00,59.2,39.5,30.09,ENE,68,2.7,2.7,48,0.00,,OVC065,0.00,VWS V14.01,2013-05-04 22:42:00,
2013-05-04 18:47:00,59.2,40.0,30.09,SE,135,2.2,3.1,49,0.00,,OVC065,0.00,VWS V14.01,2013-05-04 22:47:00,
2013-05-04 18:52:00,58.8,39.7,30.09,NNE,22,2.2,2.2,49,0.00,,OVC065,0.00,VWS V14.01,2013-05-04 22:52:00,
2013-05-04 18:57:00,58.6,40.1,30.09,ESE,112,3.6,4.9,50,0.00,,OVC065,0.00,VWS V14.01,2013-05-04 22:57:00,
2013-05-04 19:02:00,58.6,40.1,30.09,ESE,112,3.6,3.6,50,0.00,,OVC037,0.00,VWS V14.01,2013-05-04 23:02:00,
2013-05-04 19:07:00,58.5,39.9,30.09,NNE,22,3.6,3.6,50,0.00,,OVC037,0.00,VWS V14.01,2013-05-04 23:07:00,
2013-05-04 19:12:00,58.3,40.2,30.09,NNE,22,2.7,2.7,51,0.00,,OVC037,0.00,VWS V14.01,2013-05-04 23:12:00,
2013-05-04 19:17:00,58.3,40.2,30.09,ESE,112,2.7,3.1,51,0.00,,OVC037,0.00,VWS V14.01,2013-05-04 23:17:00,
2013-05-04 19:22:00,58.1,40.6,30.09,ESE,112,2.2,3.1,52,0.00,,SCT090,0.00,VWS V14.01,2013-05-04 23:22:00,
2013-05-04 19:27:00,57.9,41.4,30.09,ENE,68,2.2,7.6,54,0.00,,SCT090,0.00,VWS V14.01,2013-05-04 23:27:00,
2013-05-04 19:32:00,57.7,41.2,30.09,ESE,112,3.6,4.0,54,0.00,,SCT090,0.00,VWS V14.01,2013-05-04 23:32:00,
2013-05-04 19:37:00,57.6,41.5,30.09,ENE,68,0.0,2.2,55,0.00,,SCT090,0.00,VWS V14.01,2013-05-04 23:37:00,
2013-05-04 19:42:00,57.4,41.8,30.09,NE,45,3.1,3.1,56,0.00,,SCT055,0.00,VWS V14.01,2013-05-04 23:42:00,
2013-05-04 19:47:00,57.2,41.7,30.09,NNE,22,3.6,3.6,56,0.00,,SCT055,0.00,VWS V14.01,2013-05-04 23:47:00,
2013-05-04 19:52:00,57.0,42.0,30.09,NNE,22,4.0,4.0,57,0.00,,SCT055,0.00,VWS V14.01,2013-05-04 23:52:00,
2013-05-04 19:57:00,57.0,42.0,30.09,ESE,112,0.0,2.2,57,0.00,,SCT055,0.00,VWS V14.01,2013-05-04 23:57:00,
2013-05-04 20:03:00,56.8,41.8,30.09,ESE,112,3.1,5.8,57,0.00,,BKN055,0.00,VWS V14.01,2013-05-05 00:03:00,
2013-05-04 20:08:00,56.7,41.6,30.09,NNE,22,4.9,4.9,57,0.00,,BKN055,0.00,VWS V14.01,2013-05-05 00:08:00,
2013-05-04 20:13:00,56.7,42.1,30.09,NNE,22,2.7,3.1,58,0.00,,BKN055,0.00,VWS V14.01,2013-05-05 00:13:00,
2013-05-04 20:18:00,56.5,41.9,30.09,NNE,22,2.7,4.0,58,0.00,,BKN055,0.00,VWS V14.01,2013-05-05 00:18:00,
2013-05-04 20:23:00,56.3,41.7,30.09,North,0,2.7,3.6,58,0.00,,,0.00,VWS V14.01,2013-05-05 00:23:00,
2013-05-04 20:28:00,56.3,42.2,30.09,ENE,68,0.0,3.1,59,0.00,,,0.00,VWS V14.01,2013-05-05 00:28:00,
2013-05-04 20:33:00,56.1,42.0,30.09,NNE,22,2.7,8.3,59,0.00,,,0.00,VWS V14.01,2013-05-05 00:33:00,
2013-05-04 20:38:00,56.1,42.0,30.09,ESE,112,2.7,2.7,59,0.00,,,0.00,VWS V14.01,2013-05-05 00:38:00,
2013-05-04 20:43:00,55.9,41.8,30.09,NNW,338,2.7,3.6,59,0.00,,OVC065,0.00,VWS V14.01,2013-05-05 00:43:00,
2013-05-04 20:48:00,55.9,41.8,30.09,West,270,4.0,4.0,59,0.00,,OVC065,0.00,VWS V14.01,2013-05-05 00:48:00,
2013-05-04 20:53:00,55.6,41.9,30.09,ESE,112,0.0,2.2,60,0.00,,OVC065,0.00,VWS V14.01,2013-05-05 00:53:00,
2013-05-04 20:58:00,55.6,41.9,30.09,SSW,202,2.7,6.3,60,0.00,,OVC065,0.00,VWS V14.01,2013-05-05 00:58:00,
2013-05-04 21:03:00,55.4,41.8,30.09,NNE,22,4.0,4.0,60,0.00,,,0.00,VWS V14.01,2013-05-05 01:03:00,
2013-05-04 21:08:00,55.2,42.0,30.09,ENE,68,3.1,3.1,61,0.00,,,0.00,VWS V14.01,2013-05-05 01:08:00,
2013-05-04 21:13:00,55.2,42.0,30.09,NNE,22,3.6,4.0,61,0.00,,,0.00,VWS V14.01,2013-05-05 01:13:00,
2013-05-04 21:18:00,55.0,41.8,30.09,North,0,2.7,2.7,61,0.00,,,0.00,VWS V14.01,2013-05-05 01:18:00,
2013-05-04 21:23:00,54.9,42.1,30.09,NNE,22,2.7,2.7,62,0.00,,OVC030,0.00,VWS V14.01,2013-05-05 01:23:00,
2013-05-04 21:28:00,54.9,42.1,30.09,NNE,22,0.0,2.2,62,0.00,,OVC030,0.00,VWS V14.01,2013-05-05 01:28:00,
2013-05-04 21:33:00,54.7,42.3,30.09,NNE,22,4.0,4.0,63,0.00,,OVC030,0.00,VWS V14.01,2013-05-05 01:33:00,
2013-05-04 21:38:00,54.7,42.8,30.09,NNE,22,3.1,3.1,64,0.00,,OVC030,0.00,VWS V14.01,2013-05-05 01:38:00,
2013-05-04 21:43:00,54.7,42.8,30.09,NNE,22,2.2,2.2,64,0.00,,OVC030,0.00,VWS V14.01,2013-05-05 01:43:00,
2013-05-04 21:48:00,54.7,43.2,30.09,NNE,22,4.0,4.0,65,0.00,,OVC030,0.00,VWS V14.01,2013-05-05 01:48:00,
2013-05-04 21:53:00,54.7,43.2,30.09,SSW,202,0.0,0.0,65,0.00,,OVC030,0.00,VWS V14.01,2013-05-05 01:53:00,
2013-05-04 21:58:00,54.5,43.4,30.09,South,180,2.2,2.7,66,0.00,,OVC030,0.00,VWS V14.01,2013-05-05 01:58:00,
2013-05-04 22:03:00,54.5,43.8,30.09,SW,225,2.7,2.7,67,0.00,,OVC030,0.00,VWS V14.01,2013-05-05 02:03:00,
2013-05-04 22:08:00,54.5,43.8,30.09,SW,225,2.7,2.7,67,0.00,,OVC030,0.00,VWS V14.01,2013-05-05 02:08:00,
2013-05-04 22:13:00,54.5,44.2,30.09,SW,225,2.7,2.7,68,0.00,,OVC030,0.00,VWS V14.01,2013-05-05 02:13:00,
2013-05-04 22:18:00,54.5,44.2,30.09,North,0,3.6,3.6,68,0.00,,OVC030,0.00,VWS V14.01,2013-05-05 02:18:00,
2013-05-04 22:23:00,54.5,44.5,30.09,North,0,3.6,3.6,69,0.00,,OVC030,0.00,VWS V14.01,2013-05-05 02:23:00,
2013-05-04 22:28:00,54.5,44.5,30.09,NNE,22,3.1,4.0,69,0.00,,OVC030,0.00,VWS V14.01,2013-05-05 02:28:00,
2013-05-04 22:33:00,54.5,44.9,30.09,NNE,22,4.9,4.9,70,0.00,,OVC030,0.00,VWS V14.01,2013-05-05 02:33:00,
2013-05-04 22:38:00,54.5,44.9,30.12,NNE,22,3.1,3.6,70,0.00,,OVC030,0.00,VWS V14.01,2013-05-05 02:38:00,
2013-05-04 22:43:00,54.5,45.3,30.12,NNE,22,4.0,4.0,71,0.00,,OVC030,0.00,VWS V14.01,2013-05-05 02:43:00,
2013-05-04 22:48:00,54.5,45.3,30.12,NNE,22,4.5,4.5,71,0.00,,OVC030,0.00,VWS V14.01,2013-05-05 02:48:00,
2013-05-04 22:53:00,54.5,45.7,30.12,NNE,22,2.2,2.7,72,0.00,,OVC030,0.00,VWS V14.01,2013-05-05 02:53:00,
2013-05-04 22:58:00,54.5,45.7,30.12,North,0,2.7,2.7,72,0.00,,OVC030,0.00,VWS V14.01,2013-05-05 02:58:00,
2013-05-04 23:03:00,54.3,45.9,30.12,NNE,22,3.6,3.6,73,0.00,,OVC030,0.00,VWS V14.01,2013-05-05 03:03:00,
2013-05-04 23:08:00,54.3,45.9,30.12,SSE,158,0.0,3.1,73,0.00,,OVC030,0.00,VWS V14.01,2013-05-05 03:08:00,
2013-05-04 23:13:00,54.3,46.2,30.12,SSE,158,2.2,2.2,74,0.00,,OVC030,0.00,VWS V14.01,2013-05-05 03:13:00,
2013-05-04 23:18:00,54.3,46.6,30.12,ESE,112,2.7,2.7,75,0.00,,OVC030,0.00,VWS V14.01,2013-05-05 03:18:00,
2013-05-04 23:23:00,54.1,46.8,30.12,NNW,338,2.7,2.7,76,0.00,,OVC030,0.00,VWS V14.01,2013-05-05 03:23:00,
2013-05-04 23:28:00,53.8,47.4,30.12,ESE,112,2.7,2.7,79,0.00,,OVC030,0.00,VWS V14.01,2013-05-05 03:28:00,
2013-05-04 23:33:00,53.4,47.7,30.12,ENE,68,2.7,2.7,81,0.00,,OVC030,0.00,VWS V14.01,2013-05-05 03:33:00,
2013-05-04 23:38:00,53.1,48.4,30.12,ENE,68,2.2,2.7,84,0.00,,OVC030,0.00,VWS V14.01,2013-05-05 03:38:00,
2013-05-04 23:43:00,52.5,48.8,30.12,SSE,158,0.0,2.2,87,0.00,,OVC030,0.00,VWS V14.01,2013-05-05 03:43:00,
2013-05-04 23:48:00,52.3,49.2,30.12,ESE,112,0.0,0.0,89,0.00,,OVC030,0.00,VWS V14.01,2013-05-05 03:48:00,
2013-05-04 23:53:00,52.2,49.6,30.12,ESE,112,0.0,0.0,91,0.00,,OVC030,0.00,VWS V14.01,2013-05-05 03:53:00,
2013-05-04 23:58:00,52.0,50.0,30.12,ESE,112,0.0,0.0,93,0.00,,OVC030,0.00,VWS V14.01,2013-05-05 03:58:00,